sensor_id;sensor_type;location;lat;lon;timestamp;P1;durP1;ratioP1;P2;durP2;ratioP2
26181;SDS011;13927;51.534;11.866;2023-02-28T00:01:29;2.83;;;1.73;;
26181;SDS011;13927;51.534;11.866;2023-02-28T00:03:58;3.13;;;1.85;;
26181;SDS011;13927;51.534;11.866;2023-02-28T00:06:27;2.30;;;1.50;;
26181;SDS011;13927;51.534;11.866;2023-02-28T00:08:53;3.72;;;2.00;;
26181;SDS011;13927;51.534;11.866;2023-02-28T00:11:18;3.58;;;2.10;;
26181;SDS011;13927;51.534;11.866;2023-02-28T00:13:46;2.80;;;1.90;;
26181;SDS011;13927;51.534;11.866;2023-02-28T00:16:14;3.72;;;2.15;;
26181;SDS011;13927;51.534;11.866;2023-02-28T00:18:43;2.72;;;1.75;;
26181;SDS011;13927;51.534;11.866;2023-02-28T00:21:11;4.55;;;1.85;;
26181;SDS011;13927;51.534;11.866;2023-02-28T00:23:40;3.25;;;1.92;;
26181;SDS011;13927;51.534;11.866;2023-02-28T00:26:06;2.55;;;1.70;;
26181;SDS011;13927;51.534;11.866;2023-02-28T00:28:34;2.63;;;1.60;;
26181;SDS011;13927;51.534;11.866;2023-02-28T00:31:00;3.92;;;2.25;;
26181;SDS011;13927;51.534;11.866;2023-02-28T00:33:26;3.97;;;1.73;;
26181;SDS011;13927;51.534;11.866;2023-02-28T00:36:05;3.03;;;2.00;;
26181;SDS011;13927;51.534;11.866;2023-02-28T00:38:34;4.57;;;2.25;;
26181;SDS011;13927;51.534;11.866;2023-02-28T00:41:04;3.58;;;2.42;;
26181;SDS011;13927;51.534;11.866;2023-02-28T00:43:39;3.10;;;2.08;;
26181;SDS011;13927;51.534;11.866;2023-02-28T00:46:05;4.75;;;1.95;;
26181;SDS011;13927;51.534;11.866;2023-02-28T00:48:31;3.58;;;1.80;;
26181;SDS011;13927;51.534;11.866;2023-02-28T00:51:00;5.22;;;2.30;;
26181;SDS011;13927;51.534;11.866;2023-02-28T00:53:26;2.35;;;1.88;;
26181;SDS011;13927;51.534;11.866;2023-02-28T00:55:51;4.75;;;2.30;;
26181;SDS011;13927;51.534;11.866;2023-02-28T00:58:17;3.65;;;1.95;;
26181;SDS011;13927;51.534;11.866;2023-02-28T01:00:43;2.85;;;1.80;;
26181;SDS011;13927;51.534;11.866;2023-02-28T01:03:13;3.55;;;1.90;;
26181;SDS011;13927;51.534;11.866;2023-02-28T01:05:41;3.38;;;2.22;;
26181;SDS011;13927;51.534;11.866;2023-02-28T01:08:07;2.85;;;1.98;;
26181;SDS011;13927;51.534;11.866;2023-02-28T01:10:32;4.55;;;2.10;;
26181;SDS011;13927;51.534;11.866;2023-02-28T01:12:58;3.72;;;1.90;;
26181;SDS011;13927;51.534;11.866;2023-02-28T01:15:24;3.38;;;1.85;;
26181;SDS011;13927;51.534;11.866;2023-02-28T01:17:50;4.22;;;2.05;;
26181;SDS011;13927;51.534;11.866;2023-02-28T01:20:18;3.63;;;2.20;;
26181;SDS011;13927;51.534;11.866;2023-02-28T01:22:47;2.88;;;1.67;;
26181;SDS011;13927;51.534;11.866;2023-02-28T01:25:12;3.85;;;2.20;;
26181;SDS011;13927;51.534;11.866;2023-02-28T01:27:38;4.47;;;2.05;;
26181;SDS011;13927;51.534;11.866;2023-02-28T01:30:07;3.38;;;2.38;;
26181;SDS011;13927;51.534;11.866;2023-02-28T01:32:34;5.38;;;2.85;;
26181;SDS011;13927;51.534;11.866;2023-02-28T01:35:01;2.83;;;2.53;;
26181;SDS011;13927;51.534;11.866;2023-02-28T01:37:30;3.42;;;2.17;;
26181;SDS011;13927;51.534;11.866;2023-02-28T01:39:55;3.60;;;1.98;;
26181;SDS011;13927;51.534;11.866;2023-02-28T01:42:24;3.75;;;1.92;;
26181;SDS011;13927;51.534;11.866;2023-02-28T01:47:58;3.45;;;2.00;;
26181;SDS011;13927;51.534;11.866;2023-02-28T01:50:28;4.28;;;2.15;;
26181;SDS011;13927;51.534;11.866;2023-02-28T01:52:59;3.33;;;2.10;;
26181;SDS011;13927;51.534;11.866;2023-02-28T01:55:30;2.67;;;1.80;;
26181;SDS011;13927;51.534;11.866;2023-02-28T01:57:58;2.65;;;1.48;;
26181;SDS011;13927;51.534;11.866;2023-02-28T02:00:27;3.45;;;1.88;;
26181;SDS011;13927;51.534;11.866;2023-02-28T02:02:58;5.30;;;1.60;;
26181;SDS011;13927;51.534;11.866;2023-02-28T02:05:31;3.28;;;1.77;;
26181;SDS011;13927;51.534;11.866;2023-02-28T02:08:02;4.75;;;1.88;;
26181;SDS011;13927;51.534;11.866;2023-02-28T02:10:35;2.88;;;1.92;;
26181;SDS011;13927;51.534;11.866;2023-02-28T02:19:36;3.13;;;1.80;;
26181;SDS011;13927;51.534;11.866;2023-02-28T02:25:40;2.90;;;1.83;;
26181;SDS011;13927;51.534;11.866;2023-02-28T02:28:48;5.97;;;2.20;;
26181;SDS011;13927;51.534;11.866;2023-02-28T02:34:29;3.05;;;1.92;;
26181;SDS011;13927;51.534;11.866;2023-02-28T02:37:21;3.88;;;2.20;;
26181;SDS011;13927;51.534;11.866;2023-02-28T02:40:22;3.30;;;1.88;;
26181;SDS011;13927;51.534;11.866;2023-02-28T02:43:03;2.65;;;1.80;;
26181;SDS011;13927;51.534;11.866;2023-02-28T02:46:02;3.53;;;2.00;;
26181;SDS011;13927;51.534;11.866;2023-02-28T02:48:36;3.38;;;1.90;;
26181;SDS011;13927;51.534;11.866;2023-02-28T02:51:07;3.88;;;2.28;;
26181;SDS011;13927;51.534;11.866;2023-02-28T02:53:41;5.28;;;1.90;;
26181;SDS011;13927;51.534;11.866;2023-02-28T02:56:19;6.55;;;2.20;;
26181;SDS011;13927;51.534;11.866;2023-02-28T02:58:51;3.05;;;2.00;;
26181;SDS011;13927;51.534;11.866;2023-02-28T03:01:24;3.55;;;2.20;;
26181;SDS011;13927;51.534;11.866;2023-02-28T03:03:55;4.80;;;2.17;;
26181;SDS011;13927;51.534;11.866;2023-02-28T03:06:25;5.22;;;2.00;;
26181;SDS011;13927;51.534;11.866;2023-02-28T03:08:51;3.15;;;1.85;;
26181;SDS011;13927;51.534;11.866;2023-02-28T03:11:17;4.03;;;2.05;;
26181;SDS011;13927;51.534;11.866;2023-02-28T03:13:57;3.65;;;2.13;;
26181;SDS011;13927;51.534;11.866;2023-02-28T03:19:41;5.13;;;2.28;;
26181;SDS011;13927;51.534;11.866;2023-02-28T03:28:31;4.45;;;2.15;;
26181;SDS011;13927;51.534;11.866;2023-02-28T03:34:07;3.72;;;2.15;;
26181;SDS011;13927;51.534;11.866;2023-02-28T03:36:45;3.42;;;2.10;;
26181;SDS011;13927;51.534;11.866;2023-02-28T03:39:16;4.15;;;2.25;;
26181;SDS011;13927;51.534;11.866;2023-02-28T03:41:52;4.32;;;2.20;;
26181;SDS011;13927;51.534;11.866;2023-02-28T03:44:25;2.60;;;1.60;;
26181;SDS011;13927;51.534;11.866;2023-02-28T03:47:10;3.03;;;2.20;;
26181;SDS011;13927;51.534;11.866;2023-02-28T03:49:53;4.95;;;2.42;;
26181;SDS011;13927;51.534;11.866;2023-02-28T03:52:27;4.47;;;2.00;;
26181;SDS011;13927;51.534;11.866;2023-02-28T03:54:59;3.05;;;2.17;;
26181;SDS011;13927;51.534;11.866;2023-02-28T03:57:34;2.95;;;2.22;;
26181;SDS011;13927;51.534;11.866;2023-02-28T04:00:34;3.97;;;2.55;;
26181;SDS011;13927;51.534;11.866;2023-02-28T04:06:02;5.85;;;2.42;;
26181;SDS011;13927;51.534;11.866;2023-02-28T04:08:29;4.10;;;2.40;;
26181;SDS011;13927;51.534;11.866;2023-02-28T04:10:56;5.47;;;2.97;;
26181;SDS011;13927;51.534;11.866;2023-02-28T04:13:33;4.72;;;2.63;;
26181;SDS011;13927;51.534;11.866;2023-02-28T04:15:59;5.35;;;2.75;;
26181;SDS011;13927;51.534;11.866;2023-02-28T04:18:25;3.63;;;2.33;;
26181;SDS011;13927;51.534;11.866;2023-02-28T04:20:50;6.70;;;3.00;;
26181;SDS011;13927;51.534;11.866;2023-02-28T04:23:16;4.68;;;2.88;;
26181;SDS011;13927;51.534;11.866;2023-02-28T04:25:42;4.97;;;2.97;;
26181;SDS011;13927;51.534;11.866;2023-02-28T04:28:08;4.55;;;2.67;;
26181;SDS011;13927;51.534;11.866;2023-02-28T04:30:34;4.05;;;2.40;;
26181;SDS011;13927;51.534;11.866;2023-02-28T04:33:00;3.83;;;2.30;;
26181;SDS011;13927;51.534;11.866;2023-02-28T04:35:26;3.67;;;2.17;;
26181;SDS011;13927;51.534;11.866;2023-02-28T04:37:52;7.95;;;2.83;;
26181;SDS011;13927;51.534;11.866;2023-02-28T04:40:18;5.10;;;2.90;;
26181;SDS011;13927;51.534;11.866;2023-02-28T04:42:43;5.20;;;2.92;;
26181;SDS011;13927;51.534;11.866;2023-02-28T04:45:09;5.47;;;2.50;;
26181;SDS011;13927;51.534;11.866;2023-02-28T04:47:35;8.68;;;3.08;;
26181;SDS011;13927;51.534;11.866;2023-02-28T04:50:01;3.78;;;2.55;;
26181;SDS011;13927;51.534;11.866;2023-02-28T04:52:28;3.80;;;2.17;;
26181;SDS011;13927;51.534;11.866;2023-02-28T04:54:54;3.60;;;2.28;;
26181;SDS011;13927;51.534;11.866;2023-02-28T04:57:20;5.53;;;2.85;;
26181;SDS011;13927;51.534;11.866;2023-02-28T04:59:46;4.78;;;2.50;;
26181;SDS011;13927;51.534;11.866;2023-02-28T05:02:11;6.20;;;2.80;;
26181;SDS011;13927;51.534;11.866;2023-02-28T05:04:37;4.55;;;2.58;;
26181;SDS011;13927;51.534;11.866;2023-02-28T05:07:03;4.13;;;2.60;;
26181;SDS011;13927;51.534;11.866;2023-02-28T05:09:29;4.50;;;2.75;;
26181;SDS011;13927;51.534;11.866;2023-02-28T05:11:55;5.60;;;2.40;;
26181;SDS011;13927;51.534;11.866;2023-02-28T05:14:21;4.18;;;2.63;;
26181;SDS011;13927;51.534;11.866;2023-02-28T05:16:47;3.88;;;2.55;;
26181;SDS011;13927;51.534;11.866;2023-02-28T05:19:13;4.30;;;2.55;;
26181;SDS011;13927;51.534;11.866;2023-02-28T05:21:48;4.05;;;2.63;;
26181;SDS011;13927;51.534;11.866;2023-02-28T05:24:19;4.57;;;2.58;;
26181;SDS011;13927;51.534;11.866;2023-02-28T05:26:49;4.70;;;2.90;;
26181;SDS011;13927;51.534;11.866;2023-02-28T05:29:17;5.28;;;2.67;;
26181;SDS011;13927;51.534;11.866;2023-02-28T05:31:43;8.90;;;3.17;;
26181;SDS011;13927;51.534;11.866;2023-02-28T05:34:09;5.38;;;3.00;;
26181;SDS011;13927;51.534;11.866;2023-02-28T05:36:38;4.65;;;2.75;;
26181;SDS011;13927;51.534;11.866;2023-02-28T05:39:05;5.78;;;2.80;;
26181;SDS011;13927;51.534;11.866;2023-02-28T05:41:32;4.97;;;3.13;;
26181;SDS011;13927;51.534;11.866;2023-02-28T05:43:58;6.20;;;3.53;;
26181;SDS011;13927;51.534;11.866;2023-02-28T05:46:24;5.53;;;3.17;;
26181;SDS011;13927;51.534;11.866;2023-02-28T05:48:50;5.90;;;3.00;;
26181;SDS011;13927;51.534;11.866;2023-02-28T05:51:16;6.00;;;3.20;;
26181;SDS011;13927;51.534;11.866;2023-02-28T05:53:42;5.05;;;2.88;;
26181;SDS011;13927;51.534;11.866;2023-02-28T05:56:08;5.90;;;2.90;;
26181;SDS011;13927;51.534;11.866;2023-02-28T05:58:34;3.72;;;2.50;;
26181;SDS011;13927;51.534;11.866;2023-02-28T06:01:00;5.05;;;3.15;;
26181;SDS011;13927;51.534;11.866;2023-02-28T06:03:46;6.28;;;3.25;;
26181;SDS011;13927;51.534;11.866;2023-02-28T06:06:12;5.93;;;3.17;;
26181;SDS011;13927;51.534;11.866;2023-02-28T06:08:37;9.23;;;3.47;;
26181;SDS011;13927;51.534;11.866;2023-02-28T06:11:04;5.32;;;3.33;;
26181;SDS011;13927;51.534;11.866;2023-02-28T06:13:31;4.95;;;3.20;;
26181;SDS011;13927;51.534;11.866;2023-02-28T06:16:00;5.90;;;3.33;;
26181;SDS011;13927;51.534;11.866;2023-02-28T06:18:26;6.50;;;5.32;;
26181;SDS011;13927;51.534;11.866;2023-02-28T06:20:52;7.93;;;3.83;;
26181;SDS011;13927;51.534;11.866;2023-02-28T06:23:19;6.40;;;4.32;;
26181;SDS011;13927;51.534;11.866;2023-02-28T06:25:46;6.57;;;4.00;;
26181;SDS011;13927;51.534;11.866;2023-02-28T06:28:12;7.00;;;4.32;;
26181;SDS011;13927;51.534;11.866;2023-02-28T06:30:38;8.52;;;5.28;;
26181;SDS011;13927;51.534;11.866;2023-02-28T06:33:04;5.88;;;4.85;;
26181;SDS011;13927;51.534;11.866;2023-02-28T06:35:30;9.68;;;4.53;;
26181;SDS011;13927;51.534;11.866;2023-02-28T06:37:56;6.95;;;4.05;;
26181;SDS011;13927;51.534;11.866;2023-02-28T06:40:22;6.30;;;3.78;;
26181;SDS011;13927;51.534;11.866;2023-02-28T06:42:48;7.95;;;4.15;;
26181;SDS011;13927;51.534;11.866;2023-02-28T06:45:14;9.50;;;4.13;;
26181;SDS011;13927;51.534;11.866;2023-02-28T06:47:40;7.85;;;4.07;;
26181;SDS011;13927;51.534;11.866;2023-02-28T06:50:07;8.52;;;4.35;;
26181;SDS011;13927;51.534;11.866;2023-02-28T06:52:35;10.68;;;5.82;;
26181;SDS011;13927;51.534;11.866;2023-02-28T06:55:04;9.10;;;4.97;;
26181;SDS011;13927;51.534;11.866;2023-02-28T06:57:32;10.45;;;5.22;;
26181;SDS011;13927;51.534;11.866;2023-02-28T07:00:00;8.85;;;4.97;;
26181;SDS011;13927;51.534;11.866;2023-02-28T07:02:32;6.18;;;4.50;;
26181;SDS011;13927;51.534;11.866;2023-02-28T07:04:59;6.38;;;3.97;;
26181;SDS011;13927;51.534;11.866;2023-02-28T07:07:24;6.03;;;4.22;;
26181;SDS011;13927;51.534;11.866;2023-02-28T07:09:50;5.97;;;3.95;;
26181;SDS011;13927;51.534;11.866;2023-02-28T07:12:16;5.32;;;3.80;;
26181;SDS011;13927;51.534;11.866;2023-02-28T07:14:42;5.00;;;3.65;;
26181;SDS011;13927;51.534;11.866;2023-02-28T07:17:08;5.13;;;3.50;;
26181;SDS011;13927;51.534;11.866;2023-02-28T07:19:37;4.75;;;3.60;;
26181;SDS011;13927;51.534;11.866;2023-02-28T07:22:06;8.32;;;3.30;;
26181;SDS011;13927;51.534;11.866;2023-02-28T07:24:32;7.35;;;3.78;;
26181;SDS011;13927;51.534;11.866;2023-02-28T07:26:58;6.38;;;3.83;;
26181;SDS011;13927;51.534;11.866;2023-02-28T07:29:24;7.53;;;3.75;;
26181;SDS011;13927;51.534;11.866;2023-02-28T07:31:50;6.82;;;3.70;;
26181;SDS011;13927;51.534;11.866;2023-02-28T07:34:18;5.88;;;3.75;;
26181;SDS011;13927;51.534;11.866;2023-02-28T07:36:44;6.30;;;4.00;;
26181;SDS011;13927;51.534;11.866;2023-02-28T07:39:10;4.82;;;3.55;;
26181;SDS011;13927;51.534;11.866;2023-02-28T07:41:36;7.78;;;4.13;;
26181;SDS011;13927;51.534;11.866;2023-02-28T07:44:08;6.40;;;3.90;;
26181;SDS011;13927;51.534;11.866;2023-02-28T07:46:37;6.47;;;4.20;;
26181;SDS011;13927;51.534;11.866;2023-02-28T07:49:03;5.65;;;3.40;;
26181;SDS011;13927;51.534;11.866;2023-02-28T07:51:30;5.63;;;3.85;;
26181;SDS011;13927;51.534;11.866;2023-02-28T07:53:56;5.47;;;3.58;;
26181;SDS011;13927;51.534;11.866;2023-02-28T07:56:22;4.63;;;3.45;;
26181;SDS011;13927;51.534;11.866;2023-02-28T07:58:48;5.82;;;3.58;;
26181;SDS011;13927;51.534;11.866;2023-02-28T08:01:14;6.43;;;4.00;;
26181;SDS011;13927;51.534;11.866;2023-02-28T08:03:40;6.78;;;3.58;;
26181;SDS011;13927;51.534;11.866;2023-02-28T08:06:06;5.05;;;3.55;;
26181;SDS011;13927;51.534;11.866;2023-02-28T08:08:41;6.53;;;3.42;;
26181;SDS011;13927;51.534;11.866;2023-02-28T08:11:07;6.18;;;3.45;;
26181;SDS011;13927;51.534;11.866;2023-02-28T08:13:32;7.28;;;3.70;;
26181;SDS011;13927;51.534;11.866;2023-02-28T08:16:00;4.75;;;2.80;;
26181;SDS011;13927;51.534;11.866;2023-02-28T08:18:27;5.25;;;3.55;;
26181;SDS011;13927;51.534;11.866;2023-02-28T08:20:52;5.72;;;3.40;;
26181;SDS011;13927;51.534;11.866;2023-02-28T08:23:18;6.47;;;3.38;;
26181;SDS011;13927;51.534;11.866;2023-02-28T08:25:44;6.43;;;3.47;;
26181;SDS011;13927;51.534;11.866;2023-02-28T08:28:17;6.90;;;3.78;;
26181;SDS011;13927;51.534;11.866;2023-02-28T08:30:43;5.97;;;3.63;;
26181;SDS011;13927;51.534;11.866;2023-02-28T08:33:09;6.00;;;3.60;;
26181;SDS011;13927;51.534;11.866;2023-02-28T08:35:35;7.95;;;3.58;;
26181;SDS011;13927;51.534;11.866;2023-02-28T08:38:02;6.07;;;3.97;;
26181;SDS011;13927;51.534;11.866;2023-02-28T08:40:28;5.35;;;3.63;;
26181;SDS011;13927;51.534;11.866;2023-02-28T08:42:53;5.68;;;3.50;;
26181;SDS011;13927;51.534;11.866;2023-02-28T08:45:19;6.95;;;3.97;;
26181;SDS011;13927;51.534;11.866;2023-02-28T08:47:45;7.65;;;4.50;;
26181;SDS011;13927;51.534;11.866;2023-02-28T08:50:11;6.43;;;3.75;;
26181;SDS011;13927;51.534;11.866;2023-02-28T08:52:41;6.75;;;3.85;;
26181;SDS011;13927;51.534;11.866;2023-02-28T08:55:08;4.78;;;3.65;;
26181;SDS011;13927;51.534;11.866;2023-02-28T08:57:35;6.30;;;3.67;;
26181;SDS011;13927;51.534;11.866;2023-02-28T09:00:01;6.28;;;3.90;;
26181;SDS011;13927;51.534;11.866;2023-02-28T09:02:29;4.35;;;3.08;;
26181;SDS011;13927;51.534;11.866;2023-02-28T09:04:56;5.60;;;3.83;;
26181;SDS011;13927;51.534;11.866;2023-02-28T09:07:23;6.20;;;4.05;;
26181;SDS011;13927;51.534;11.866;2023-02-28T09:09:49;7.32;;;3.80;;
26181;SDS011;13927;51.534;11.866;2023-02-28T09:12:22;5.73;;;3.63;;
26181;SDS011;13927;51.534;11.866;2023-02-28T09:14:50;6.35;;;3.33;;
26181;SDS011;13927;51.534;11.866;2023-02-28T09:17:17;5.50;;;3.10;;
26181;SDS011;13927;51.534;11.866;2023-02-28T09:19:43;8.55;;;4.15;;
26181;SDS011;13927;51.534;11.866;2023-02-28T09:22:09;6.97;;;3.90;;
26181;SDS011;13927;51.534;11.866;2023-02-28T09:24:36;5.80;;;3.78;;
26181;SDS011;13927;51.534;11.866;2023-02-28T09:27:03;6.55;;;3.75;;
26181;SDS011;13927;51.534;11.866;2023-02-28T09:29:30;7.53;;;4.30;;
26181;SDS011;13927;51.534;11.866;2023-02-28T09:31:57;5.85;;;3.60;;
26181;SDS011;13927;51.534;11.866;2023-02-28T09:34:23;5.53;;;3.83;;
26181;SDS011;13927;51.534;11.866;2023-02-28T09:36:50;8.93;;;4.55;;
26181;SDS011;13927;51.534;11.866;2023-02-28T09:39:19;6.32;;;4.25;;
26181;SDS011;13927;51.534;11.866;2023-02-28T09:41:48;6.05;;;4.18;;
26181;SDS011;13927;51.534;11.866;2023-02-28T09:44:38;6.40;;;4.25;;
26181;SDS011;13927;51.534;11.866;2023-02-28T09:47:12;5.75;;;4.03;;
26181;SDS011;13927;51.534;11.866;2023-02-28T09:50:11;7.75;;;3.97;;
26181;SDS011;13927;51.534;11.866;2023-02-28T09:52:57;4.72;;;4.05;;
26181;SDS011;13927;51.534;11.866;2023-02-28T09:55:32;8.60;;;4.00;;
26181;SDS011;13927;51.534;11.866;2023-02-28T09:58:32;5.03;;;3.67;;
26181;SDS011;13927;51.534;11.866;2023-02-28T10:16:31;5.82;;;2.97;;
26181;SDS011;13927;51.534;11.866;2023-02-28T10:19:22;5.43;;;3.35;;
26181;SDS011;13927;51.534;11.866;2023-02-28T10:22:29;4.53;;;3.38;;
26181;SDS011;13927;51.534;11.866;2023-02-28T10:24:58;4.00;;;2.50;;
26181;SDS011;13927;51.534;11.866;2023-02-28T10:27:43;5.50;;;2.90;;
26181;SDS011;13927;51.534;11.866;2023-02-28T10:30:09;3.55;;;2.60;;
26181;SDS011;13927;51.534;11.866;2023-02-28T10:32:38;4.28;;;2.83;;
26181;SDS011;13927;51.534;11.866;2023-02-28T10:35:10;4.07;;;2.78;;
26181;SDS011;13927;51.534;11.866;2023-02-28T10:37:50;4.85;;;3.22;;
26181;SDS011;13927;51.534;11.866;2023-02-28T10:42:58;3.45;;;2.63;;
26181;SDS011;13927;51.534;11.866;2023-02-28T10:45:31;4.35;;;3.22;;
26181;SDS011;13927;51.534;11.866;2023-02-28T10:48:24;6.13;;;3.47;;
26181;SDS011;13927;51.534;11.866;2023-02-28T10:51:16;4.00;;;3.13;;
26181;SDS011;13927;51.534;11.866;2023-02-28T10:53:53;5.70;;;3.15;;
26181;SDS011;13927;51.534;11.866;2023-02-28T10:56:20;4.60;;;3.45;;
26181;SDS011;13927;51.534;11.866;2023-02-28T11:01:45;5.53;;;3.55;;
26181;SDS011;13927;51.534;11.866;2023-02-28T11:09:48;5.55;;;3.63;;
26181;SDS011;13927;51.534;11.866;2023-02-28T11:14:49;4.45;;;3.63;;
26181;SDS011;13927;51.534;11.866;2023-02-28T11:17:20;5.53;;;3.50;;
26181;SDS011;13927;51.534;11.866;2023-02-28T11:19:53;4.93;;;3.70;;
26181;SDS011;13927;51.534;11.866;2023-02-28T11:22:24;4.15;;;3.58;;
26181;SDS011;13927;51.534;11.866;2023-02-28T11:24:57;4.90;;;4.15;;
26181;SDS011;13927;51.534;11.866;2023-02-28T11:30:01;5.25;;;3.90;;
26181;SDS011;13927;51.534;11.866;2023-02-28T11:32:29;6.43;;;4.75;;
26181;SDS011;13927;51.534;11.866;2023-02-28T11:35:03;6.75;;;4.03;;
26181;SDS011;13927;51.534;11.866;2023-02-28T11:37:37;5.30;;;3.80;;
26181;SDS011;13927;51.534;11.866;2023-02-28T11:40:28;6.38;;;3.92;;
26181;SDS011;13927;51.534;11.866;2023-02-28T11:43:16;6.53;;;3.83;;
26181;SDS011;13927;51.534;11.866;2023-02-28T11:46:27;8.38;;;3.70;;
26181;SDS011;13927;51.534;11.866;2023-02-28T11:49:15;5.78;;;4.32;;
26181;SDS011;13927;51.534;11.866;2023-02-28T11:52:17;5.28;;;4.05;;
26181;SDS011;13927;51.534;11.866;2023-02-28T11:55:16;5.45;;;4.25;;
26181;SDS011;13927;51.534;11.866;2023-02-28T12:06:45;7.05;;;4.53;;
26181;SDS011;13927;51.534;11.866;2023-02-28T12:12:49;6.55;;;4.07;;
26181;SDS011;13927;51.534;11.866;2023-02-28T12:19:06;6.22;;;4.20;;
26181;SDS011;13927;51.534;11.866;2023-02-28T12:32:41;5.75;;;3.97;;
26181;SDS011;13927;51.534;11.866;2023-02-28T12:35:13;7.55;;;4.82;;
26181;SDS011;13927;51.534;11.866;2023-02-28T12:40:22;6.35;;;4.47;;
26181;SDS011;13927;51.534;11.866;2023-02-28T12:43:12;6.15;;;4.85;;
26181;SDS011;13927;51.534;11.866;2023-02-28T12:45:52;6.30;;;4.85;;
26181;SDS011;13927;51.534;11.866;2023-02-28T12:48:26;6.53;;;4.78;;
26181;SDS011;13927;51.534;11.866;2023-02-28T12:51:05;7.28;;;4.80;;
26181;SDS011;13927;51.534;11.866;2023-02-28T12:56:37;6.22;;;4.50;;
26181;SDS011;13927;51.534;11.866;2023-02-28T13:14:24;8.10;;;4.63;;
26181;SDS011;13927;51.534;11.866;2023-02-28T13:17:10;5.38;;;4.07;;
26181;SDS011;13927;51.534;11.866;2023-02-28T13:22:36;8.75;;;4.68;;
26181;SDS011;13927;51.534;11.866;2023-02-28T13:27:52;6.88;;;4.82;;
26181;SDS011;13927;51.534;11.866;2023-02-28T13:33:28;7.55;;;4.68;;
26181;SDS011;13927;51.534;11.866;2023-02-28T13:38:54;9.25;;;4.63;;
26181;SDS011;13927;51.534;11.866;2023-02-28T13:52:30;6.00;;;5.18;;
26181;SDS011;13927;51.534;11.866;2023-02-28T14:01:02;6.20;;;4.28;;
26181;SDS011;13927;51.534;11.866;2023-02-28T14:06:54;7.60;;;5.10;;
26181;SDS011;13927;51.534;11.866;2023-02-28T14:15:40;7.25;;;4.80;;
26181;SDS011;13927;51.534;11.866;2023-02-28T14:18:21;8.90;;;5.40;;
26181;SDS011;13927;51.534;11.866;2023-02-28T14:20:54;6.93;;;4.95;;
26181;SDS011;13927;51.534;11.866;2023-02-28T14:23:50;5.80;;;4.75;;
26181;SDS011;13927;51.534;11.866;2023-02-28T14:29:43;5.80;;;4.82;;
26181;SDS011;13927;51.534;11.866;2023-02-28T14:38:55;7.35;;;4.53;;
26181;SDS011;13927;51.534;11.866;2023-02-28T14:44:02;6.65;;;4.70;;
26181;SDS011;13927;51.534;11.866;2023-02-28T14:46:49;5.75;;;4.30;;
26181;SDS011;13927;51.534;11.866;2023-02-28T14:49:20;6.60;;;4.70;;
26181;SDS011;13927;51.534;11.866;2023-02-28T14:54:40;7.63;;;4.90;;
26181;SDS011;13927;51.534;11.866;2023-02-28T14:57:12;6.32;;;4.70;;
26181;SDS011;13927;51.534;11.866;2023-02-28T15:02:50;6.72;;;4.72;;
26181;SDS011;13927;51.534;11.866;2023-02-28T15:08:01;6.82;;;4.32;;
26181;SDS011;13927;51.534;11.866;2023-02-28T15:10:44;6.38;;;4.53;;
26181;SDS011;13927;51.534;11.866;2023-02-28T15:13:16;7.10;;;4.57;;
26181;SDS011;13927;51.534;11.866;2023-02-28T15:20:50;6.22;;;4.43;;
26181;SDS011;13927;51.534;11.866;2023-02-28T15:23:17;6.28;;;4.13;;
26181;SDS011;13927;51.534;11.866;2023-02-28T15:25:44;11.93;;;4.35;;
26181;SDS011;13927;51.534;11.866;2023-02-28T15:28:12;7.80;;;4.07;;
26181;SDS011;13927;51.534;11.866;2023-02-28T15:30:51;5.57;;;4.18;;
26181;SDS011;13927;51.534;11.866;2023-02-28T15:33:21;6.10;;;4.28;;
26181;SDS011;13927;51.534;11.866;2023-02-28T15:36:05;6.45;;;4.07;;
26181;SDS011;13927;51.534;11.866;2023-02-28T15:38:37;6.25;;;4.50;;
26181;SDS011;13927;51.534;11.866;2023-02-28T15:41:03;6.05;;;4.20;;
26181;SDS011;13927;51.534;11.866;2023-02-28T15:43:34;8.15;;;5.20;;
26181;SDS011;13927;51.534;11.866;2023-02-28T15:46:09;7.03;;;4.80;;
26181;SDS011;13927;51.534;11.866;2023-02-28T15:51:19;6.90;;;5.05;;
26181;SDS011;13927;51.534;11.866;2023-02-28T15:53:51;7.45;;;4.82;;
26181;SDS011;13927;51.534;11.866;2023-02-28T15:56:24;5.78;;;4.70;;
26181;SDS011;13927;51.534;11.866;2023-02-28T15:58:57;9.65;;;5.75;;
26181;SDS011;13927;51.534;11.866;2023-02-28T16:01:35;8.85;;;5.32;;
26181;SDS011;13927;51.534;11.866;2023-02-28T16:04:11;7.38;;;4.40;;
26181;SDS011;13927;51.534;11.866;2023-02-28T16:06:45;8.35;;;5.20;;
26181;SDS011;13927;51.534;11.866;2023-02-28T16:09:37;6.68;;;4.53;;
26181;SDS011;13927;51.534;11.866;2023-02-28T16:12:04;6.53;;;4.90;;
26181;SDS011;13927;51.534;11.866;2023-02-28T16:14:30;7.07;;;5.15;;
26181;SDS011;13927;51.534;11.866;2023-02-28T16:17:02;7.75;;;4.75;;
26181;SDS011;13927;51.534;11.866;2023-02-28T16:19:31;8.95;;;4.90;;
26181;SDS011;13927;51.534;11.866;2023-02-28T16:21:57;6.05;;;5.03;;
26181;SDS011;13927;51.534;11.866;2023-02-28T16:24:23;7.90;;;5.15;;
26181;SDS011;13927;51.534;11.866;2023-02-28T16:26:50;6.07;;;5.10;;
26181;SDS011;13927;51.534;11.866;2023-02-28T16:29:40;9.30;;;6.10;;
26181;SDS011;13927;51.534;11.866;2023-02-28T16:32:06;7.57;;;5.30;;
26181;SDS011;13927;51.534;11.866;2023-02-28T16:34:31;6.28;;;4.43;;
26181;SDS011;13927;51.534;11.866;2023-02-28T16:36:57;7.53;;;5.07;;
26181;SDS011;13927;51.534;11.866;2023-02-28T16:39:23;7.13;;;5.22;;
26181;SDS011;13927;51.534;11.866;2023-02-28T16:41:49;8.88;;;5.90;;
26181;SDS011;13927;51.534;11.866;2023-02-28T16:44:27;8.18;;;5.65;;
26181;SDS011;13927;51.534;11.866;2023-02-28T16:46:56;11.63;;;7.72;;
26181;SDS011;13927;51.534;11.866;2023-02-28T16:49:22;15.63;;;5.95;;
26181;SDS011;13927;51.534;11.866;2023-02-28T16:51:47;7.43;;;5.85;;
26181;SDS011;13927;51.534;11.866;2023-02-28T16:54:13;8.07;;;6.25;;
26181;SDS011;13927;51.534;11.866;2023-02-28T16:56:40;8.98;;;5.85;;
26181;SDS011;13927;51.534;11.866;2023-02-28T16:59:10;8.95;;;5.80;;
26181;SDS011;13927;51.534;11.866;2023-02-28T17:01:37;7.75;;;5.70;;
26181;SDS011;13927;51.534;11.866;2023-02-28T17:04:03;9.65;;;5.95;;
26181;SDS011;13927;51.534;11.866;2023-02-28T17:06:29;8.98;;;5.57;;
26181;SDS011;13927;51.534;11.866;2023-02-28T17:08:56;8.15;;;6.03;;
26181;SDS011;13927;51.534;11.866;2023-02-28T17:11:23;11.77;;;9.18;;
26181;SDS011;13927;51.534;11.866;2023-02-28T17:13:50;11.07;;;7.13;;
26181;SDS011;13927;51.534;11.866;2023-02-28T17:16:27;9.00;;;6.03;;
26181;SDS011;13927;51.534;11.866;2023-02-28T17:19:00;8.55;;;6.30;;
26181;SDS011;13927;51.534;11.866;2023-02-28T17:21:29;9.38;;;6.55;;
26181;SDS011;13927;51.534;11.866;2023-02-28T17:23:56;11.98;;;8.93;;
26181;SDS011;13927;51.534;11.866;2023-02-28T17:26:22;15.93;;;11.15;;
26181;SDS011;13927;51.534;11.866;2023-02-28T17:28:49;13.25;;;8.80;;
26181;SDS011;13927;51.534;11.866;2023-02-28T17:31:20;12.05;;;9.50;;
26181;SDS011;13927;51.534;11.866;2023-02-28T17:33:48;14.43;;;8.98;;
26181;SDS011;13927;51.534;11.866;2023-02-28T17:36:14;16.98;;;11.05;;
26181;SDS011;13927;51.534;11.866;2023-02-28T17:38:48;35.03;;;19.38;;
26181;SDS011;13927;51.534;11.866;2023-02-28T17:41:14;50.22;;;24.60;;
26181;SDS011;13927;51.534;11.866;2023-02-28T17:43:40;60.80;;;27.65;;
26181;SDS011;13927;51.534;11.866;2023-02-28T17:46:08;61.55;;;27.35;;
26181;SDS011;13927;51.534;11.866;2023-02-28T17:48:46;57.03;;;28.05;;
26181;SDS011;13927;51.534;11.866;2023-02-28T17:51:16;49.28;;;21.88;;
26181;SDS011;13927;51.534;11.866;2023-02-28T17:53:43;16.85;;;9.80;;